Aérodrome :
LOGIN :

S'inscrire | Disclaimer

   EN    FR    IT 

 










Légende :    VFR   VFR Marginal   IFR   IFR Intensif   IFR Très Intensif
Visi : 
Plafond : 
>= 8 km
>= 3000ft
5 à 8 km
1000 à 3000 ft
1500m à 5 km
500 à 1000 ft
800 à 1500m
200 à 500 ft
< 800m
< 200 ft
Symboles :   Orages  Brouillard  Fortes neiges  Fortes précipitations  Vent > 20 kt
SIGMETs :   Divers  Orages  Givrage  Turbulence  Onde Orograph.  Cendres Volcan.







- Altitude de l'aérodrome : 16 ft
- Code IATA : SDR


LEXJ - Santander Cantabria

DERNIER METAR :
  • 121700Z 12002KT CAVOK 12/10 Q1015

METARs EXPIRÉS :
  • 121630Z VRB02KT CAVOK 12/10 Q1016
  • 121600Z VRB01KT CAVOK 12/09 Q1016
  • 121530Z 11003KT 9999 FEW060 13/09 Q1017
  • 121500Z VRB01KT 9999 FEW060 13/09 Q1017
  • 121430Z 10001KT 9999 FEW052 13/09 Q1017
  • 121400Z VRB01KT 9999 FEW052 13/09 Q1018

TAF TAF LEXJ
Valide du 12 à 15h jusqu'au 13 à 15h UTC


121400Z 1215/1315 19009KT 9999 SCT018 SCT030 TX14/1215Z TN10/1306Z
TEMPO 1215/1218 09010KT
TEMPO 1221/1306 20015G30KT
BECMG 1303/1306 27015KT
TEMPO 1303/1315 27020G35KT 4000 RA
Pas de NOTAMs connus pour ce terrain.



MET'MAP, la Météo Aéronautique d'un coup d'oeil ! - Copyright ORBIFLY Décembre 2007 - Disclaimer

ORBIFLY MET'MAP TEAM :

Programmation & Développement : Alexandra Zaïnal
Conception & Développement : Baudouin d'Aumeries
Co-Programmation & Développement : Marc-Olivier Méhu
Soutien technique & logistique : Manuel Goepfert

Contact : metmap@orbifly.com




SOURCES & CREDITS :

   NOAA